createdAt,value
2019-02-27T00:02:36.289Z,102614.44
2019-02-27T00:05:43.867Z,102614.02
2019-02-27T00:09:00.531Z,102610.28
2019-02-27T00:12:08.445Z,102610.58
2019-02-27T00:15:15.776Z,102603.84
2019-02-27T00:18:23.957Z,102603.84
2019-02-27T00:21:31.649Z,102604.67
2019-02-27T00:24:38.805Z,102615.02
2019-02-27T00:27:49.155Z,102611.14
2019-02-27T00:30:55.079Z,102605.09
2019-02-27T00:34:02.289Z,102595.42
2019-02-27T00:37:09.438Z,102601.72
2019-02-27T00:40:16.666Z,102592.69
2019-02-27T00:43:25.952Z,102588.90
2019-02-27T00:46:32.893Z,102582.87
2019-02-27T00:49:40.212Z,102578.22
2019-02-27T00:52:50.904Z,102581.92
2019-02-27T00:56:05.890Z,102569.63
2019-02-27T00:59:13.032Z,102573.44
2019-02-27T01:02:20.873Z,102565.45
2019-02-27T01:05:28.078Z,102573.73
2019-02-27T01:08:35.213Z,102568.72
2019-02-27T01:11:42.554Z,102570.37
2019-02-27T01:14:49.680Z,102566.31
2019-02-27T01:17:57.529Z,102561.84
2019-02-27T01:21:19.251Z,102547.05
2019-02-27T01:24:22.925Z,102543.54
2019-02-27T01:27:30.172Z,102542.94
2019-02-27T01:30:37.360Z,102537.39
2019-02-27T01:33:44.496Z,102530.14
2019-02-27T01:36:51.725Z,102526.80
2019-02-27T01:39:58.864Z,102522.88
2019-02-27T01:43:06.483Z,102521.19
2019-02-27T01:46:27.356Z,102518.28
2019-02-27T01:49:41.709Z,102513.19
2019-02-27T01:52:48.921Z,102516.12
2019-02-27T01:55:56.906Z,102508.41
2019-02-27T01:59:04.176Z,102505.05
2019-02-27T02:02:11.699Z,102498.34
2019-02-27T02:05:19.118Z,102490.63
2019-02-27T02:08:26.451Z,102485.41
2019-02-27T02:11:35.009Z,102488.92
2019-02-27T02:14:54.989Z,102478.75
2019-02-27T02:18:25.378Z,102474.81
2019-02-27T02:22:32.253Z,102478.22
2019-02-27T02:26:38.842Z,102474.50
2019-02-27T02:30:19.779Z,102470.59
2019-02-27T02:34:08.153Z,102461.09
2019-02-27T02:37:47.148Z,102456.56
2019-02-27T02:41:18.647Z,102449.90
2019-02-27T02:44:49.594Z,102446.47
2019-02-27T02:48:47.093Z,102448.52
2019-02-27T02:52:10.758Z,102435.47
2019-02-27T02:55:52.558Z,102427.80
2019-02-27T02:59:45.935Z,102423.60
2019-02-27T03:03:27.618Z,102418.45
2019-02-27T03:06:55.077Z,102412.06
2019-02-27T03:10:30.317Z,102407.35
2019-02-27T03:14:17.225Z,102406.52
2019-02-27T03:18:05.805Z,102407.34
2019-02-27T03:21:38.495Z,102396.04
2019-02-27T03:25:05.794Z,102389.27
2019-02-27T03:28:53.498Z,102388.38
2019-02-27T03:32:41.307Z,102388.00
2019-02-27T03:36:14.015Z,102380.44
2019-02-27T03:40:01.859Z,102375.30
2019-02-27T03:43:28.199Z,102371.48
2019-02-27T03:47:16.630Z,102375.26
2019-02-27T03:50:55.811Z,102376.89
2019-02-27T03:54:28.725Z,102366.72
2019-02-27T03:58:00.581Z,102364.63
2019-02-27T04:01:45.682Z,102364.25
2019-02-27T04:05:13.628Z,102363.02
2019-02-27T04:08:56.598Z,102363.41
2019-02-27T04:12:04.018Z,102365.48
2019-02-27T04:15:11.443Z,102365.97
2019-02-27T04:18:28.399Z,102361.31
2019-02-27T04:21:35.841Z,102352.27
2019-02-27T04:24:43.102Z,102354.03
2019-02-27T04:27:55.320Z,102348.08
2019-02-27T04:30:59.046Z,102343.69
2019-02-27T04:34:06.307Z,102340.42
2019-02-27T04:37:13.424Z,102342.53
2019-02-27T04:40:20.618Z,102334.88
2019-02-27T04:43:32.022Z,102337.33
2019-02-27T04:46:36.943Z,102331.08
2019-02-27T04:49:44.258Z,102333.72
2019-02-27T04:52:51.962Z,102327.78
2019-02-27T04:55:59.101Z,102326.03
2019-02-27T04:59:18.603Z,102322.63
2019-02-27T05:02:25.695Z,102325.55
2019-02-27T05:05:33.016Z,102324.19
2019-02-27T05:08:40.148Z,102322.06
2019-02-27T05:11:48.282Z,102322.70
2019-02-27T05:15:05.363Z,102325.41
2019-02-27T05:18:12.604Z,102320.41
2019-02-27T05:21:19.798Z,102324.22
2019-02-27T05:24:27.062Z,102320.84
2019-02-27T05:27:44.681Z,102313.76
2019-02-27T05:30:51.991Z,102320.91
2019-02-27T05:34:12.653Z,102314.19
2019-02-27T05:37:27.034Z,102308.69
2019-02-27T05:40:34.228Z,102313.73
2019-02-27T05:43:41.460Z,102312.02
2019-02-27T05:46:48.599Z,102316.47
2019-02-27T05:49:57.930Z,102318.58
2019-02-27T05:53:04.865Z,102318.16
2019-02-27T05:56:21.525Z,102311.09
2019-02-27T05:59:29.430Z,102311.39
2019-02-27T06:02:36.952Z,102311.39
2019-02-27T06:05:49.536Z,102312.19
2019-02-27T06:08:53.188Z,102311.45
2019-02-27T06:12:00.421Z,102312.65
2019-02-27T06:15:10.391Z,102310.12
2019-02-27T06:18:22.438Z,102316.80
2019-02-27T06:21:36.586Z,102311.74
2019-02-27T06:24:45.543Z,102310.42
2019-02-27T06:27:52.627Z,102309.95
2019-02-27T06:31:02.541Z,102309.69
2019-02-27T06:34:09.996Z,102308.44
2019-02-27T06:37:17.245Z,102310.91
2019-02-27T06:40:24.469Z,102312.17
2019-02-27T06:43:31.692Z,102301.05
2019-02-27T06:46:38.607Z,102302.40
2019-02-27T06:49:45.751Z,102304.99
2019-02-27T06:52:52.897Z,102295.80
2019-02-27T06:56:02.824Z,102285.59
2019-02-27T06:59:18.959Z,102278.86
2019-02-27T07:02:26.212Z,102279.36
2019-02-27T07:05:33.365Z,102275.45
2019-02-27T07:08:40.500Z,102262.78
2019-02-27T07:11:48.930Z,102262.45
2019-02-27T07:14:55.863Z,102260.34
2019-02-27T07:18:03.510Z,102256.12
2019-02-27T07:21:12.290Z,102252.73
2019-02-27T07:24:19.479Z,102257.03
2019-02-27T07:27:28.291Z,102249.84
2019-02-27T07:30:35.662Z,102257.47
2019-02-27T07:33:42.884Z,102262.22
2019-02-27T07:36:59.732Z,102255.05
2019-02-27T07:40:09.376Z,102258.50
2019-02-27T07:43:16.782Z,102262.28
2019-02-27T07:46:23.921Z,102270.34
2019-02-27T07:49:31.590Z,102269.12
2019-02-27T07:52:38.745Z,102265.95
2019-02-27T07:55:47.382Z,102258.02
2019-02-27T07:59:06.719Z,102255.53
2019-02-27T08:02:23.334Z,102252.17
2019-02-27T08:05:30.545Z,102253.94
2019-02-27T08:08:37.580Z,102246.73
2019-02-27T08:11:47.301Z,102248.85
2019-02-27T08:14:53.697Z,102255.20
2019-02-27T08:18:00.877Z,102249.27
2019-02-27T08:21:08.197Z,102244.66
2019-02-27T08:24:15.338Z,102241.30
2019-02-27T08:27:22.724Z,102231.52
2019-02-27T08:30:39.309Z,102229.83
2019-02-27T08:33:46.545Z,102233.64
2019-02-27T08:36:53.855Z,102235.22
2019-02-27T08:40:01.343Z,102232.70
2019-02-27T08:43:10.240Z,102229.30
2019-02-27T08:46:17.941Z,102232.23
2019-02-27T08:49:25.234Z,102230.08
2019-02-27T08:52:32.383Z,102222.98
2019-02-27T08:55:39.828Z,102222.88
2019-02-27T08:58:47.019Z,102219.70
2019-02-27T09:01:56.334Z,102208.34
2019-02-27T09:05:03.145Z,102214.58
2019-02-27T09:08:10.807Z,102208.77
2019-02-27T09:11:27.306Z,102205.05
2019-02-27T09:14:34.528Z,102196.28
2019-02-27T09:17:51.346Z,102189.15
2019-02-27T09:20:59.204Z,102193.48
2019-02-27T09:24:06.536Z,102182.93
2019-02-27T09:27:14.062Z,102182.67
2019-02-27T09:30:21.216Z,102169.56
2019-02-27T09:33:28.625Z,102162.91
2019-02-27T09:36:35.718Z,102170.64
2019-02-27T09:39:42.963Z,102165.14
2019-02-27T09:42:52.877Z,102159.75
2019-02-27T09:45:58.989Z,102149.36
2019-02-27T09:49:07.040Z,102140.50
2019-02-27T09:52:14.292Z,102138.23
2019-02-27T09:55:21.423Z,102133.96
2019-02-27T09:58:28.665Z,102133.38
2019-02-27T10:01:35.967Z,102127.33
2019-02-27T10:04:43.681Z,102119.20
2019-02-27T10:07:51.354Z,102112.83
2019-02-27T10:10:59.269Z,102113.86
2019-02-27T10:14:06.642Z,102104.63
2019-02-27T10:17:13.932Z,102108.52
2019-02-27T10:20:21.135Z,102100.94
2019-02-27T10:23:31.148Z,102098.33
2019-02-27T10:26:37.109Z,102091.84
2019-02-27T10:29:47.772Z,102086.47
2019-02-27T10:32:53.270Z,102087.37
2019-02-27T10:36:03.023Z,102086.27
2019-02-27T10:39:09.929Z,102083.34
2019-02-27T10:42:26.434Z,102083.61
2019-02-27T10:45:33.735Z,102077.30
2019-02-27T10:48:50.418Z,102062.45
2019-02-27T10:51:57.580Z,102069.98
2019-02-27T10:55:05.029Z,102049.83
2019-02-27T10:58:21.650Z,102038.42
2019-02-27T11:01:38.356Z,102038.22
2019-02-27T11:04:45.583Z,102026.38
2019-02-27T11:07:53.702Z,102024.33
2019-02-27T11:11:01.051Z,102014.75
2019-02-27T11:14:08.368Z,102012.47
2019-02-27T11:17:15.499Z,102012.22
2019-02-27T11:20:24.568Z,102001.27
2019-02-27T11:23:31.703Z,102002.68
2019-02-27T11:26:38.906Z,101997.58
2019-02-27T11:29:47.346Z,101992.00
2019-02-27T11:32:57.248Z,101986.92
2019-02-27T11:36:05.656Z,101988.31
2019-02-27T11:39:12.866Z,101989.61
2019-02-27T11:42:20.092Z,101979.83
2019-02-27T11:45:27.377Z,101975.50
2019-02-27T11:48:43.922Z,101969.83
2019-02-27T11:51:53.215Z,101971.52
2019-02-27T11:54:59.672Z,101972.58
2019-02-27T11:58:06.807Z,101961.55
2019-02-27T12:01:14.106Z,101960.18
2019-02-27T12:04:21.320Z,101966.48
2019-02-27T12:07:27.727Z,101953.39
2019-02-27T12:10:34.991Z,101945.05
2019-02-27T12:13:42.187Z,101927.32
2019-02-27T12:16:51.671Z,101923.48
2019-02-27T12:19:58.237Z,101924.61
2019-02-27T12:23:07.524Z,101921.11
2019-02-27T12:26:14.753Z,101916.05
2019-02-27T12:29:33.573Z,101918.12
2019-02-27T12:32:50.443Z,101913.90
2019-02-27T12:36:08.948Z,101902.13
2019-02-27T12:39:25.608Z,101901.91
2019-02-27T12:42:37.410Z,101896.69
2019-02-27T12:45:41.700Z,101889.57
2019-02-27T12:48:58.402Z,101887.76
2019-02-27T12:52:05.620Z,101890.05
2019-02-27T12:55:13.831Z,101888.25
2019-02-27T12:58:21.039Z,101881.28
2019-02-27T13:01:28.500Z,101870.48
2019-02-27T13:04:35.641Z,101868.78
2019-02-27T13:07:44.726Z,101853.72
2019-02-27T13:10:51.884Z,101858.58
2019-02-27T13:13:59.672Z,101845.27
2019-02-27T13:17:07.946Z,101838.77
2019-02-27T13:20:20.263Z,101825.53
2019-02-27T13:23:38.938Z,101816.66
2019-02-27T13:26:45.720Z,101818.78
2019-02-27T13:29:56.581Z,101823.23
2019-02-27T13:33:11.255Z,101802.59
2019-02-27T13:36:28.041Z,101801.75
2019-02-27T13:39:35.166Z,101800.72
2019-02-27T13:42:42.408Z,101790.31
2019-02-27T13:45:49.668Z,101779.02
2019-02-27T13:49:06.496Z,101768.43
2019-02-27T13:52:13.635Z,101773.39
2019-02-27T13:55:21.175Z,101762.41
2019-02-27T13:58:37.722Z,101754.72
2019-02-27T14:01:44.923Z,101752.81
2019-02-27T14:05:01.598Z,101735.96
2019-02-27T14:08:09.037Z,101725.77
2019-02-27T14:11:25.863Z,101723.02
2019-02-27T14:14:42.444Z,101713.20
2019-02-27T14:17:49.647Z,101709.78
2019-02-27T14:20:59.020Z,101706.07
2019-02-27T14:24:15.293Z,101701.61
2019-02-27T14:27:22.506Z,101700.52
2019-02-27T14:30:42.081Z,101690.39
2019-02-27T14:33:51.303Z,101683.95
2019-02-27T14:36:58.720Z,101680.02
2019-02-27T14:40:16.541Z,101674.64
2019-02-27T14:43:26.990Z,101669.05
2019-02-27T14:46:32.567Z,101667.44
2019-02-27T14:49:39.706Z,101662.36
2019-02-27T14:52:46.896Z,101655.33
2019-02-27T14:55:54.110Z,101651.36
2019-02-27T14:59:01.279Z,101644.38
2019-02-27T15:02:08.495Z,101635.45
2019-02-27T15:05:15.855Z,101629.23
2019-02-27T15:08:25.203Z,101626.69
2019-02-27T15:11:31.845Z,101619.66
2019-02-27T15:14:39.188Z,101606.28
2019-02-27T15:17:46.755Z,101602.52
2019-02-27T15:21:03.353Z,101596.66
2019-02-27T15:24:20.049Z,101593.64
2019-02-27T15:27:27.287Z,101587.41
2019-02-27T15:30:34.515Z,101586.05
2019-02-27T15:33:51.269Z,101583.46
2019-02-27T15:37:00.987Z,101583.02
2019-02-27T15:40:08.527Z,101575.28
2019-02-27T15:43:17.486Z,101572.92
2019-02-27T15:46:24.778Z,101558.67
2019-02-27T15:49:31.998Z,101554.05
2019-02-27T15:52:40.597Z,101547.97
2019-02-27T15:56:05.414Z,101535.31
2019-02-27T15:59:12.518Z,101535.31
2019-02-27T16:02:19.848Z,101525.70
2019-02-27T16:05:36.716Z,101526.28
2019-02-27T16:08:43.952Z,101504.23
2019-02-27T16:11:52.441Z,101504.23
2019-02-27T16:14:59.789Z,101507.75
2019-02-27T16:18:07.104Z,101501.34
2019-02-27T16:21:14.409Z,101500.03
2019-02-27T16:24:21.619Z,101501.36
2019-02-27T16:27:38.795Z,101491.86
2019-02-27T16:30:46.146Z,101485.67
2019-02-27T16:33:55.563Z,101476.48
2019-02-27T16:37:02.406Z,101473.02
2019-02-27T16:40:10.732Z,101473.55
2019-02-27T16:43:27.089Z,101463.25
2019-02-27T16:46:34.215Z,101462.30
2019-02-27T16:49:41.472Z,101453.13
2019-02-27T16:52:48.840Z,101444.05
2019-02-27T16:56:08.353Z,101446.39
2019-02-27T16:59:23.874Z,101444.80
2019-02-27T17:02:31.111Z,101438.52
2019-02-27T17:05:40.313Z,101427.52
2019-02-27T17:08:56.751Z,101408.45
2019-02-27T17:12:13.550Z,101406.17
2019-02-27T17:15:34.578Z,101399.32
2019-02-27T17:18:48.658Z,101395.63
2019-02-27T17:21:58.419Z,101395.93
2019-02-27T17:25:14.574Z,101391.23
2019-02-27T17:28:37.153Z,101380.59
2019-02-27T17:31:49.297Z,101384.09
2019-02-27T17:35:02.590Z,101383.19
2019-02-27T17:38:10.902Z,101368.83
2019-02-27T17:41:18.604Z,101370.45
2019-02-27T17:44:25.842Z,101364.39
2019-02-27T17:47:42.710Z,101352.45
2019-02-27T17:50:59.431Z,101343.11
2019-02-27T17:54:06.717Z,101342.36
2019-02-27T17:57:24.998Z,101325.16
2019-02-27T18:00:42.866Z,101319.09
2019-02-27T18:03:50.004Z,101313.02
2019-02-27T18:06:59.817Z,101308.55
2019-02-27T18:10:06.316Z,101297.34
2019-02-27T18:13:13.443Z,101290.80
2019-02-27T18:16:20.758Z,101284.23
2019-02-27T18:19:27.986Z,101281.28
2019-02-27T18:22:35.304Z,101277.50
2019-02-27T18:25:42.617Z,101263.11
2019-02-27T18:28:59.248Z,101260.21
2019-02-27T18:32:06.746Z,101265.33
2019-02-27T18:35:23.275Z,101253.29
2019-02-27T18:38:30.490Z,101258.38
2019-02-27T18:41:39.621Z,101258.52
2019-02-27T18:44:55.979Z,101256.50
2019-02-27T18:48:03.300Z,101253.00
2019-02-27T18:51:10.518Z,101248.62
2019-02-27T18:54:27.177Z,101243.63
2019-02-27T18:57:34.502Z,101246.71
2019-02-27T19:00:41.681Z,101238.67
2019-02-27T19:03:49.173Z,101230.52
2019-02-27T19:07:05.599Z,101223.41
2019-02-27T19:10:14.874Z,101223.57
2019-02-27T19:13:31.798Z,101216.38
2019-02-27T19:16:39.579Z,101217.12
2019-02-27T19:19:48.949Z,101223.92
2019-02-27T19:22:56.011Z,101212.58
2019-02-27T19:26:03.219Z,101212.02
2019-02-27T19:29:10.427Z,101209.51
2019-02-27T19:32:17.555Z,101208.81
2019-02-27T19:35:24.887Z,101212.72
2019-02-27T19:38:44.189Z,101220.75
2019-02-27T19:41:59.897Z,101207.48
2019-02-27T19:45:16.706Z,101206.05
2019-02-27T19:48:26.277Z,101205.25
2019-02-27T19:51:42.570Z,101197.11
2019-02-27T19:54:59.226Z,101193.21
2019-02-27T19:58:18.180Z,101176.53
2019-02-27T20:01:34.405Z,101175.80
2019-02-27T20:04:44.707Z,101174.64
2019-02-27T20:08:02.208Z,101162.46
2019-02-27T20:11:18.562Z,101153.03
2019-02-27T20:14:36.633Z,101152.29
2019-02-27T20:17:53.888Z,101148.53
2019-02-27T20:21:11.417Z,101139.81
2019-02-27T20:24:18.792Z,101139.36
2019-02-27T20:27:26.880Z,101131.60
2019-02-27T20:30:34.336Z,101134.16
2019-02-27T20:33:41.987Z,101128.78
2019-02-27T20:36:49.313Z,101122.60
2019-02-27T20:39:59.209Z,101118.30
2019-02-27T20:43:05.465Z,101106.56
2019-02-27T20:46:14.702Z,101105.63
2019-02-27T20:49:31.100Z,101098.98
2019-02-27T20:52:49.344Z,101093.66
2019-02-27T20:56:06.278Z,101092.11
2019-02-27T20:59:26.057Z,101085.69
2019-02-27T21:02:41.457Z,101081.08
2019-02-27T21:05:58.007Z,101065.92
2019-02-27T21:09:11.787Z,101062.88
2019-02-27T21:12:16.799Z,101055.72
2019-02-27T21:15:24.920Z,101048.88
2019-02-27T21:18:32.674Z,101044.48
2019-02-27T21:21:39.717Z,101044.30
2019-02-27T21:24:46.840Z,101041.66
2019-02-27T21:27:54.040Z,101036.92
2019-02-27T21:31:01.590Z,101030.97
2019-02-27T21:34:08.806Z,101028.28
2019-02-27T21:37:16.257Z,101032.20
2019-02-27T21:40:23.521Z,101024.36
2019-02-27T21:43:30.796Z,101016.00
2019-02-27T21:46:37.926Z,101012.69
2019-02-27T21:49:45.120Z,101012.77
2019-02-27T21:52:54.408Z,101012.98
2019-02-27T21:56:10.830Z,101017.53
2019-02-27T21:59:18.115Z,101015.70
2019-02-27T22:02:34.804Z,101018.64
2019-02-27T22:05:43.108Z,101028.64
2019-02-27T22:08:50.339Z,101019.89
2019-02-27T22:11:58.167Z,100997.75
2019-02-27T22:15:07.560Z,100990.23
2019-02-27T22:18:14.700Z,100991.06
2019-02-27T22:21:22.170Z,100980.89
2019-02-27T22:24:29.508Z,100984.71
2019-02-27T22:27:36.707Z,100974.13
2019-02-27T22:30:43.936Z,100965.89
2019-02-27T22:33:53.132Z,100972.25
2019-02-27T22:37:00.290Z,100964.75
2019-02-27T22:40:08.976Z,100957.44
2019-02-27T22:43:16.336Z,100954.85
2019-02-27T22:46:23.475Z,100960.78
2019-02-27T22:49:31.885Z,100950.23
2019-02-27T22:52:39.688Z,100944.38
2019-02-27T22:55:56.392Z,100943.02
2019-02-27T22:59:13.119Z,100934.09
2019-02-27T23:02:21.610Z,100930.37
2019-02-27T23:05:29.017Z,100938.77
2019-02-27T23:08:36.254Z,100934.88
2019-02-27T23:11:43.823Z,100928.94
2019-02-27T23:15:00.380Z,100924.14
2019-02-27T23:18:17.122Z,100916.37
2019-02-27T23:21:33.897Z,100913.91
2019-02-27T23:24:50.667Z,100913.03
2019-02-27T23:28:07.476Z,100909.04
2019-02-27T23:31:24.138Z,100901.91
2019-02-27T23:34:31.344Z,100893.52
2019-02-27T23:37:38.553Z,100892.61
2019-02-27T23:40:49.150Z,100888.58
2019-02-27T23:44:05.419Z,100877.95
2019-02-27T23:47:22.566Z,100876.61
2019-02-27T23:50:42.645Z,100873.66
2019-02-27T23:53:58.565Z,100875.16
2019-02-27T23:57:16.093Z,100871.77
